sensor_id;sensor_type;location;lat;lon;timestamp;temperature;humidity
19214;DHT22;9741;51.020;5.304;2023-04-25T00:01:02;7.80;55.90
19214;DHT22;9741;51.020;5.304;2023-04-25T00:03:30;7.70;55.90
19214;DHT22;9741;51.020;5.304;2023-04-25T00:05:58;7.70;56.00
19214;DHT22;9741;51.020;5.304;2023-04-25T00:08:29;7.60;56.00
19214;DHT22;9741;51.020;5.304;2023-04-25T00:10:56;7.60;56.10
19214;DHT22;9741;51.020;5.304;2023-04-25T00:13:24;7.60;56.20
19214;DHT22;9741;51.020;5.304;2023-04-25T00:15:51;7.60;56.30
19214;DHT22;9741;51.020;5.304;2023-04-25T00:18:18;7.60;56.40
19214;DHT22;9741;51.020;5.304;2023-04-25T00:20:46;7.60;56.50
19214;DHT22;9741;51.020;5.304;2023-04-25T00:23:13;7.60;56.60
19214;DHT22;9741;51.020;5.304;2023-04-25T00:25:44;7.60;56.60
19214;DHT22;9741;51.020;5.304;2023-04-25T00:28:12;7.60;56.60
19214;DHT22;9741;51.020;5.304;2023-04-25T00:30:40;7.70;56.80
19214;DHT22;9741;51.020;5.304;2023-04-25T00:33:07;7.70;56.80
19214;DHT22;9741;51.020;5.304;2023-04-25T00:35:35;7.70;56.80
19214;DHT22;9741;51.020;5.304;2023-04-25T00:38:02;7.70;56.90
19214;DHT22;9741;51.020;5.304;2023-04-25T00:40:29;7.80;57.00
19214;DHT22;9741;51.020;5.304;2023-04-25T00:42:58;7.80;57.00
19214;DHT22;9741;51.020;5.304;2023-04-25T00:45:28;7.80;57.60
19214;DHT22;9741;51.020;5.304;2023-04-25T00:47:56;7.80;57.20
19214;DHT22;9741;51.020;5.304;2023-04-25T00:50:24;7.80;57.20
19214;DHT22;9741;51.020;5.304;2023-04-25T00:52:51;7.80;57.30
19214;DHT22;9741;51.020;5.304;2023-04-25T00:55:19;7.80;57.30
19214;DHT22;9741;51.020;5.304;2023-04-25T00:57:47;7.90;57.50
19214;DHT22;9741;51.020;5.304;2023-04-25T01:00:16;7.90;57.60
19214;DHT22;9741;51.020;5.304;2023-04-25T01:02:44;8.00;57.70
19214;DHT22;9741;51.020;5.304;2023-04-25T01:05:12;8.00;57.70
19214;DHT22;9741;51.020;5.304;2023-04-25T01:07:39;8.10;57.90
19214;DHT22;9741;51.020;5.304;2023-04-25T01:10:08;8.10;57.90
19214;DHT22;9741;51.020;5.304;2023-04-25T01:12:35;8.20;58.00
19214;DHT22;9741;51.020;5.304;2023-04-25T01:15:03;8.20;58.00
19214;DHT22;9741;51.020;5.304;2023-04-25T01:17:34;8.30;58.10
19214;DHT22;9741;51.020;5.304;2023-04-25T01:20:03;8.40;58.20
19214;DHT22;9741;51.020;5.304;2023-04-25T01:22:34;8.40;58.80
19214;DHT22;9741;51.020;5.304;2023-04-25T01:25:02;8.40;58.20
19214;DHT22;9741;51.020;5.304;2023-04-25T01:27:29;8.50;58.20
19214;DHT22;9741;51.020;5.304;2023-04-25T01:29:56;8.50;58.20
19214;DHT22;9741;51.020;5.304;2023-04-25T01:32:24;8.50;58.20
19214;DHT22;9741;51.020;5.304;2023-04-25T01:34:52;8.50;58.20
19214;DHT22;9741;51.020;5.304;2023-04-25T01:37:19;8.50;58.80
19214;DHT22;9741;51.020;5.304;2023-04-25T01:39:48;8.50;58.20
19214;DHT22;9741;51.020;5.304;2023-04-25T01:42:16;8.50;58.20
19214;DHT22;9741;51.020;5.304;2023-04-25T01:44:43;8.50;58.20
19214;DHT22;9741;51.020;5.304;2023-04-25T01:47:10;8.50;58.30
19214;DHT22;9741;51.020;5.304;2023-04-25T01:49:37;8.50;58.30
19214;DHT22;9741;51.020;5.304;2023-04-25T01:52:04;8.40;58.30
19214;DHT22;9741;51.020;5.304;2023-04-25T01:54:32;8.50;58.40
19214;DHT22;9741;51.020;5.304;2023-04-25T01:57:00;8.40;58.30
19214;DHT22;9741;51.020;5.304;2023-04-25T01:59:30;8.40;58.40
19214;DHT22;9741;51.020;5.304;2023-04-25T02:01:57;8.50;58.50
19214;DHT22;9741;51.020;5.304;2023-04-25T02:04:25;8.40;58.30
19214;DHT22;9741;51.020;5.304;2023-04-25T02:06:52;8.50;58.50
19214;DHT22;9741;51.020;5.304;2023-04-25T02:09:19;8.50;58.50
19214;DHT22;9741;51.020;5.304;2023-04-25T02:11:46;8.50;58.50
19214;DHT22;9741;51.020;5.304;2023-04-25T02:14:15;8.50;58.50
19214;DHT22;9741;51.020;5.304;2023-04-25T02:16:42;8.50;58.50
19214;DHT22;9741;51.020;5.304;2023-04-25T02:19:10;8.50;58.50
19214;DHT22;9741;51.020;5.304;2023-04-25T02:21:37;8.50;58.50
19214;DHT22;9741;51.020;5.304;2023-04-25T02:24:06;8.50;58.50
19214;DHT22;9741;51.020;5.304;2023-04-25T02:26:33;8.60;58.50
19214;DHT22;9741;51.020;5.304;2023-04-25T02:29:00;8.60;58.50
19214;DHT22;9741;51.020;5.304;2023-04-25T02:31:29;8.60;58.50
19214;DHT22;9741;51.020;5.304;2023-04-25T02:33:56;8.60;58.50
19214;DHT22;9741;51.020;5.304;2023-04-25T02:36:23;8.50;58.50
19214;DHT22;9741;51.020;5.304;2023-04-25T02:38:51;8.50;58.50
19214;DHT22;9741;51.020;5.304;2023-04-25T02:41:19;8.50;58.50
19214;DHT22;9741;51.020;5.304;2023-04-25T02:43:46;8.40;58.50
19214;DHT22;9741;51.020;5.304;2023-04-25T02:46:13;8.40;58.50
19214;DHT22;9741;51.020;5.304;2023-04-25T02:48:42;8.40;58.50
19214;DHT22;9741;51.020;5.304;2023-04-25T02:51:09;8.40;58.60
19214;DHT22;9741;51.020;5.304;2023-04-25T02:53:36;8.40;58.60
19214;DHT22;9741;51.020;5.304;2023-04-25T02:56:04;8.40;58.70
19214;DHT22;9741;51.020;5.304;2023-04-25T02:58:31;8.40;58.80
19214;DHT22;9741;51.020;5.304;2023-04-25T03:00:59;8.40;58.80
19214;DHT22;9741;51.020;5.304;2023-04-25T03:03:26;8.40;58.80
19214;DHT22;9741;51.020;5.304;2023-04-25T03:05:54;8.40;58.80
19214;DHT22;9741;51.020;5.304;2023-04-25T03:08:21;8.40;58.90
19214;DHT22;9741;51.020;5.304;2023-04-25T03:10:50;8.40;58.90
19214;DHT22;9741;51.020;5.304;2023-04-25T03:13:21;8.40;58.90
19214;DHT22;9741;51.020;5.304;2023-04-25T03:15:48;8.40;58.90
19214;DHT22;9741;51.020;5.304;2023-04-25T03:18:15;8.40;58.90
19214;DHT22;9741;51.020;5.304;2023-04-25T03:20:42;8.40;59.00
19214;DHT22;9741;51.020;5.304;2023-04-25T03:23:11;8.40;59.00
19214;DHT22;9741;51.020;5.304;2023-04-25T03:25:38;8.40;59.00
19214;DHT22;9741;51.020;5.304;2023-04-25T03:28:06;8.40;59.00
19214;DHT22;9741;51.020;5.304;2023-04-25T03:30:33;8.40;59.00
19214;DHT22;9741;51.020;5.304;2023-04-25T03:33:00;8.40;59.00
19214;DHT22;9741;51.020;5.304;2023-04-25T03:35:27;8.40;59.10
19214;DHT22;9741;51.020;5.304;2023-04-25T03:37:55;8.40;59.10
19214;DHT22;9741;51.020;5.304;2023-04-25T03:40:23;8.40;59.10
19214;DHT22;9741;51.020;5.304;2023-04-25T03:42:51;8.40;59.10
19214;DHT22;9741;51.020;5.304;2023-04-25T03:45:18;8.40;59.10
19214;DHT22;9741;51.020;5.304;2023-04-25T03:47:45;8.30;59.10
19214;DHT22;9741;51.020;5.304;2023-04-25T03:50:12;8.30;59.10
19214;DHT22;9741;51.020;5.304;2023-04-25T03:52:39;8.30;59.10
19214;DHT22;9741;51.020;5.304;2023-04-25T03:55:07;8.20;59.10
19214;DHT22;9741;51.020;5.304;2023-04-25T03:57:36;8.20;59.20
19214;DHT22;9741;51.020;5.304;2023-04-25T04:00:04;8.10;59.10
19214;DHT22;9741;51.020;5.304;2023-04-25T04:02:32;8.10;59.20
19214;DHT22;9741;51.020;5.304;2023-04-25T04:05:00;8.10;59.20
19214;DHT22;9741;51.020;5.304;2023-04-25T04:07:27;8.00;59.20
19214;DHT22;9741;51.020;5.304;2023-04-25T04:09:55;8.00;59.20
19214;DHT22;9741;51.020;5.304;2023-04-25T04:12:22;8.00;59.20
19214;DHT22;9741;51.020;5.304;2023-04-25T04:14:51;8.00;59.30
19214;DHT22;9741;51.020;5.304;2023-04-25T04:17:18;8.10;59.50
19214;DHT22;9741;51.020;5.304;2023-04-25T04:19:45;8.00;59.40
19214;DHT22;9741;51.020;5.304;2023-04-25T04:22:12;8.00;59.50
19214;DHT22;9741;51.020;5.304;2023-04-25T04:24:39;8.10;59.60
19214;DHT22;9741;51.020;5.304;2023-04-25T04:27:09;8.10;59.60
19214;DHT22;9741;51.020;5.304;2023-04-25T04:29:38;8.10;59.60
19214;DHT22;9741;51.020;5.304;2023-04-25T04:32:07;8.10;59.50
19214;DHT22;9741;51.020;5.304;2023-04-25T04:34:35;8.10;59.50
19214;DHT22;9741;51.020;5.304;2023-04-25T04:37:03;8.20;59.60
19214;DHT22;9741;51.020;5.304;2023-04-25T04:39:30;8.20;59.60
19214;DHT22;9741;51.020;5.304;2023-04-25T04:41:57;8.20;59.70
19214;DHT22;9741;51.020;5.304;2023-04-25T04:44:25;8.20;59.70
19214;DHT22;9741;51.020;5.304;2023-04-25T04:46:52;8.20;59.60
19214;DHT22;9741;51.020;5.304;2023-04-25T04:49:21;8.20;59.60
19214;DHT22;9741;51.020;5.304;2023-04-25T04:51:48;8.30;59.70
19214;DHT22;9741;51.020;5.304;2023-04-25T04:54:16;8.30;59.70
19214;DHT22;9741;51.020;5.304;2023-04-25T04:56:43;8.30;59.70
19214;DHT22;9741;51.020;5.304;2023-04-25T04:59:10;8.30;59.60
19214;DHT22;9741;51.020;5.304;2023-04-25T05:01:37;8.40;59.70
19214;DHT22;9741;51.020;5.304;2023-04-25T05:04:05;8.40;59.60
19214;DHT22;9741;51.020;5.304;2023-04-25T05:06:34;8.40;59.60
19214;DHT22;9741;51.020;5.304;2023-04-25T05:09:01;8.50;59.60
19214;DHT22;9741;51.020;5.304;2023-04-25T05:11:29;8.50;59.60
19214;DHT22;9741;51.020;5.304;2023-04-25T05:13:56;8.50;59.60
19214;DHT22;9741;51.020;5.304;2023-04-25T05:16:23;8.60;59.60
19214;DHT22;9741;51.020;5.304;2023-04-25T05:18:51;8.60;59.70
19214;DHT22;9741;51.020;5.304;2023-04-25T05:21:18;8.60;59.70
19214;DHT22;9741;51.020;5.304;2023-04-25T05:23:47;8.60;59.70
19214;DHT22;9741;51.020;5.304;2023-04-25T05:26:14;8.70;59.80
19214;DHT22;9741;51.020;5.304;2023-04-25T05:28:41;8.80;59.90
19214;DHT22;9741;51.020;5.304;2023-04-25T05:31:10;8.80;59.80
19214;DHT22;9741;51.020;5.304;2023-04-25T05:33:37;8.90;59.90
19214;DHT22;9741;51.020;5.304;2023-04-25T05:36:05;8.90;59.80
19214;DHT22;9741;51.020;5.304;2023-04-25T05:38:32;9.00;59.80
19214;DHT22;9741;51.020;5.304;2023-04-25T05:41:01;9.00;59.70
19214;DHT22;9741;51.020;5.304;2023-04-25T05:43:28;9.10;59.80
19214;DHT22;9741;51.020;5.304;2023-04-25T05:45:56;9.10;59.80
19214;DHT22;9741;51.020;5.304;2023-04-25T05:48:23;9.20;59.80
19214;DHT22;9741;51.020;5.304;2023-04-25T05:50:50;9.30;59.80
19214;DHT22;9741;51.020;5.304;2023-04-25T05:53:18;9.40;59.80
19214;DHT22;9741;51.020;5.304;2023-04-25T05:55:46;9.50;59.80
19214;DHT22;9741;51.020;5.304;2023-04-25T05:58:15;9.50;59.70
19214;DHT22;9741;51.020;5.304;2023-04-25T06:00:42;9.60;59.70
19214;DHT22;9741;51.020;5.304;2023-04-25T06:03:10;9.70;59.60
19214;DHT22;9741;51.020;5.304;2023-04-25T06:05:40;9.90;59.70
19214;DHT22;9741;51.020;5.304;2023-04-25T06:08:08;10.00;58.50
19214;DHT22;9741;51.020;5.304;2023-04-25T06:10:36;10.10;58.40
19214;DHT22;9741;51.020;5.304;2023-04-25T06:13:06;10.30;58.40
19214;DHT22;9741;51.020;5.304;2023-04-25T06:15:35;10.40;58.30
19214;DHT22;9741;51.020;5.304;2023-04-25T06:18:02;10.50;58.20
19214;DHT22;9741;51.020;5.304;2023-04-25T06:20:30;10.60;58.20
19214;DHT22;9741;51.020;5.304;2023-04-25T06:22:58;10.80;58.20
19214;DHT22;9741;51.020;5.304;2023-04-25T06:25:25;10.90;58.00
19214;DHT22;9741;51.020;5.304;2023-04-25T06:27:55;11.10;57.90
19214;DHT22;9741;51.020;5.304;2023-04-25T06:30:26;11.30;57.90
19214;DHT22;9741;51.020;5.304;2023-04-25T06:33:00;11.40;57.70
19214;DHT22;9741;51.020;5.304;2023-04-25T06:35:28;11.50;57.50
19214;DHT22;9741;51.020;5.304;2023-04-25T06:37:56;11.50;57.20
19214;DHT22;9741;51.020;5.304;2023-04-25T06:40:23;11.50;57.10
19214;DHT22;9741;51.020;5.304;2023-04-25T06:42:50;11.50;57.10
19214;DHT22;9741;51.020;5.304;2023-04-25T06:45:18;11.50;57.00
19214;DHT22;9741;51.020;5.304;2023-04-25T06:47:46;11.60;57.60
19214;DHT22;9741;51.020;5.304;2023-04-25T06:50:17;11.70;57.00
19214;DHT22;9741;51.020;5.304;2023-04-25T06:52:47;11.80;56.90
19214;DHT22;9741;51.020;5.304;2023-04-25T06:55:14;11.80;56.70
19214;DHT22;9741;51.020;5.304;2023-04-25T06:57:42;11.90;56.70
19214;DHT22;9741;51.020;5.304;2023-04-25T07:00:10;11.90;56.60
19214;DHT22;9741;51.020;5.304;2023-04-25T07:02:39;11.90;56.30
19214;DHT22;9741;51.020;5.304;2023-04-25T07:05:10;12.00;56.30
19214;DHT22;9741;51.020;5.304;2023-04-25T07:07:42;12.00;56.00
19214;DHT22;9741;51.020;5.304;2023-04-25T07:10:11;12.10;55.90
19214;DHT22;9741;51.020;5.304;2023-04-25T07:12:39;12.20;55.90
19214;DHT22;9741;51.020;5.304;2023-04-25T07:15:07;12.50;55.90
19214;DHT22;9741;51.020;5.304;2023-04-25T07:17:36;12.70;55.80
19214;DHT22;9741;51.020;5.304;2023-04-25T07:20:05;13.00;55.70
19214;DHT22;9741;51.020;5.304;2023-04-25T07:22:34;13.30;55.30
19214;DHT22;9741;51.020;5.304;2023-04-25T07:25:03;13.50;54.70
19214;DHT22;9741;51.020;5.304;2023-04-25T07:27:33;13.60;54.40
19214;DHT22;9741;51.020;5.304;2023-04-25T07:30:00;13.80;54.20
19214;DHT22;9741;51.020;5.304;2023-04-25T07:32:29;14.00;53.80
19214;DHT22;9741;51.020;5.304;2023-04-25T07:34:56;14.20;53.80
19214;DHT22;9741;51.020;5.304;2023-04-25T07:37:23;14.40;53.50
19214;DHT22;9741;51.020;5.304;2023-04-25T07:39:53;14.70;53.30
19214;DHT22;9741;51.020;5.304;2023-04-25T07:42:26;14.90;52.90
19214;DHT22;9741;51.020;5.304;2023-04-25T07:44:53;15.00;52.30
19214;DHT22;9741;51.020;5.304;2023-04-25T07:47:21;15.20;51.90
19214;DHT22;9741;51.020;5.304;2023-04-25T07:49:48;15.20;51.20
19214;DHT22;9741;51.020;5.304;2023-04-25T07:52:15;15.30;51.50
19214;DHT22;9741;51.020;5.304;2023-04-25T07:54:42;15.40;50.70
19214;DHT22;9741;51.020;5.304;2023-04-25T07:57:10;15.60;50.50
19214;DHT22;9741;51.020;5.304;2023-04-25T07:59:41;15.70;50.70
19214;DHT22;9741;51.020;5.304;2023-04-25T08:02:08;15.80;49.70
19214;DHT22;9741;51.020;5.304;2023-04-25T08:04:35;15.80;49.60
19214;DHT22;9741;51.020;5.304;2023-04-25T08:07:02;15.80;49.20
19214;DHT22;9741;51.020;5.304;2023-04-25T08:09:29;15.70;48.70
19214;DHT22;9741;51.020;5.304;2023-04-25T08:12:00;15.60;48.40
19214;DHT22;9741;51.020;5.304;2023-04-25T08:14:28;15.50;48.20
19214;DHT22;9741;51.020;5.304;2023-04-25T08:17:02;15.30;47.80
19214;DHT22;9741;51.020;5.304;2023-04-25T08:19:30;15.20;47.60
19214;DHT22;9741;51.020;5.304;2023-04-25T08:21:57;15.10;47.50
19214;DHT22;9741;51.020;5.304;2023-04-25T08:24:24;14.90;47.20
19214;DHT22;9741;51.020;5.304;2023-04-25T08:26:52;14.80;47.20
19214;DHT22;9741;51.020;5.304;2023-04-25T08:29:19;14.60;47.10
19214;DHT22;9741;51.020;5.304;2023-04-25T08:31:48;14.40;47.00
19214;DHT22;9741;51.020;5.304;2023-04-25T08:34:17;14.30;47.00
19214;DHT22;9741;51.020;5.304;2023-04-25T08:36:45;14.20;47.00
19214;DHT22;9741;51.020;5.304;2023-04-25T08:39:13;14.10;47.10
19214;DHT22;9741;51.020;5.304;2023-04-25T08:41:40;13.90;46.90
19214;DHT22;9741;51.020;5.304;2023-04-25T08:44:11;13.80;46.80
19214;DHT22;9741;51.020;5.304;2023-04-25T08:46:39;13.80;47.00
19214;DHT22;9741;51.020;5.304;2023-04-25T08:49:07;13.80;47.10
19214;DHT22;9741;51.020;5.304;2023-04-25T08:51:42;14.00;47.20
19214;DHT22;9741;51.020;5.304;2023-04-25T08:54:12;14.20;47.30
19214;DHT22;9741;51.020;5.304;2023-04-25T08:56:42;14.40;47.10
19214;DHT22;9741;51.020;5.304;2023-04-25T08:59:13;14.60;46.80
19214;DHT22;9741;51.020;5.304;2023-04-25T09:01:41;14.80;46.70
19214;DHT22;9741;51.020;5.304;2023-04-25T09:04:08;15.40;47.20
19214;DHT22;9741;51.020;5.304;2023-04-25T09:06:37;15.90;46.80
19214;DHT22;9741;51.020;5.304;2023-04-25T09:09:07;16.50;46.50
19214;DHT22;9741;51.020;5.304;2023-04-25T09:11:37;17.30;46.20
19214;DHT22;9741;51.020;5.304;2023-04-25T09:14:12;18.00;45.20
19214;DHT22;9741;51.020;5.304;2023-04-25T09:17:01;18.30;44.20
19214;DHT22;9741;51.020;5.304;2023-04-25T09:19:30;18.30;43.90
19214;DHT22;9741;51.020;5.304;2023-04-25T09:22:00;18.10;43.50
19214;DHT22;9741;51.020;5.304;2023-04-25T09:24:32;17.80;43.30
19214;DHT22;9741;51.020;5.304;2023-04-25T09:27:01;17.80;43.70
19214;DHT22;9741;51.020;5.304;2023-04-25T09:29:30;18.20;43.90
19214;DHT22;9741;51.020;5.304;2023-04-25T09:32:12;18.40;43.20
19214;DHT22;9741;51.020;5.304;2023-04-25T09:34:40;18.90;42.60
19214;DHT22;9741;51.020;5.304;2023-04-25T09:37:10;19.20;42.10
19214;DHT22;9741;51.020;5.304;2023-04-25T09:39:38;19.50;42.10
19214;DHT22;9741;51.020;5.304;2023-04-25T09:42:07;19.90;42.10
19214;DHT22;9741;51.020;5.304;2023-04-25T09:44:43;20.00;41.50
19214;DHT22;9741;51.020;5.304;2023-04-25T09:47:12;20.00;41.30
19214;DHT22;9741;51.020;5.304;2023-04-25T09:49:42;19.90;40.90
19214;DHT22;9741;51.020;5.304;2023-04-25T09:52:16;19.60;40.20
19214;DHT22;9741;51.020;5.304;2023-04-25T09:54:44;19.30;39.70
19214;DHT22;9741;51.020;5.304;2023-04-25T09:57:13;18.90;39.40
19214;DHT22;9741;51.020;5.304;2023-04-25T09:59:44;18.40;39.10
19214;DHT22;9741;51.020;5.304;2023-04-25T10:02:15;17.90;38.80
19214;DHT22;9741;51.020;5.304;2023-04-25T10:04:45;17.40;38.90
19214;DHT22;9741;51.020;5.304;2023-04-25T10:07:22;16.80;38.90
19214;DHT22;9741;51.020;5.304;2023-04-25T10:09:56;16.20;39.10
19214;DHT22;9741;51.020;5.304;2023-04-25T10:12:28;15.70;39.30
19214;DHT22;9741;51.020;5.304;2023-04-25T10:14:59;15.10;39.50
19214;DHT22;9741;51.020;5.304;2023-04-25T10:17:27;14.70;40.00
19214;DHT22;9741;51.020;5.304;2023-04-25T10:19:56;14.40;40.50
19214;DHT22;9741;51.020;5.304;2023-04-25T10:22:34;14.10;40.80
19214;DHT22;9741;51.020;5.304;2023-04-25T10:25:04;14.00;41.10
19214;DHT22;9741;51.020;5.304;2023-04-25T10:27:34;13.70;41.10
19214;DHT22;9741;51.020;5.304;2023-04-25T10:30:08;13.50;41.40
19214;DHT22;9741;51.020;5.304;2023-04-25T10:32:36;13.30;41.60
19214;DHT22;9741;51.020;5.304;2023-04-25T10:35:11;13.20;41.70
19214;DHT22;9741;51.020;5.304;2023-04-25T10:38:00;13.10;41.80
19214;DHT22;9741;51.020;5.304;2023-04-25T10:40:30;12.90;41.70
19214;DHT22;9741;51.020;5.304;2023-04-25T10:46:00;12.80;41.80
19214;DHT22;9741;51.020;5.304;2023-04-25T10:48:29;12.80;42.50
19214;DHT22;9741;51.020;5.304;2023-04-25T10:51:18;12.80;42.00
19214;DHT22;9741;51.020;5.304;2023-04-25T10:53:57;12.90;42.00
19214;DHT22;9741;51.020;5.304;2023-04-25T10:56:26;12.90;41.80
19214;DHT22;9741;51.020;5.304;2023-04-25T10:59:07;13.00;41.70
19214;DHT22;9741;51.020;5.304;2023-04-25T11:01:40;13.20;41.70
19214;DHT22;9741;51.020;5.304;2023-04-25T11:04:20;13.40;41.70
19214;DHT22;9741;51.020;5.304;2023-04-25T11:07:07;13.70;41.50
19214;DHT22;9741;51.020;5.304;2023-04-25T11:09:39;13.90;41.30
19214;DHT22;9741;51.020;5.304;2023-04-25T11:12:08;14.00;41.20
19214;DHT22;9741;51.020;5.304;2023-04-25T11:14:38;14.20;41.30
19214;DHT22;9741;51.020;5.304;2023-04-25T11:17:06;14.40;41.50
19214;DHT22;9741;51.020;5.304;2023-04-25T11:19:33;14.60;41.50
19214;DHT22;9741;51.020;5.304;2023-04-25T11:22:02;14.90;41.50
19214;DHT22;9741;51.020;5.304;2023-04-25T11:24:31;15.20;41.90
19214;DHT22;9741;51.020;5.304;2023-04-25T11:27:03;15.40;41.20
19214;DHT22;9741;51.020;5.304;2023-04-25T11:29:33;15.60;41.00
19214;DHT22;9741;51.020;5.304;2023-04-25T11:32:03;15.70;40.90
19214;DHT22;9741;51.020;5.304;2023-04-25T11:34:32;15.80;41.00
19214;DHT22;9741;51.020;5.304;2023-04-25T11:37:22;15.90;40.80
19214;DHT22;9741;51.020;5.304;2023-04-25T11:39:51;15.90;40.60
19214;DHT22;9741;51.020;5.304;2023-04-25T11:42:38;16.00;40.40
19214;DHT22;9741;51.020;5.304;2023-04-25T11:45:16;15.90;40.10
19214;DHT22;9741;51.020;5.304;2023-04-25T11:47:45;15.90;40.10
19214;DHT22;9741;51.020;5.304;2023-04-25T11:50:16;16.10;40.20
19214;DHT22;9741;51.020;5.304;2023-04-25T11:52:47;16.20;39.90
19214;DHT22;9741;51.020;5.304;2023-04-25T11:55:17;16.40;39.60
19214;DHT22;9741;51.020;5.304;2023-04-25T11:57:50;16.70;39.80
19214;DHT22;9741;51.020;5.304;2023-04-25T12:00:19;16.90;39.50
19214;DHT22;9741;51.020;5.304;2023-04-25T12:02:52;17.00;39.30
19214;DHT22;9741;51.020;5.304;2023-04-25T12:05:25;16.80;38.80
19214;DHT22;9741;51.020;5.304;2023-04-25T12:07:55;16.50;38.50
19214;DHT22;9741;51.020;5.304;2023-04-25T12:10:24;16.10;38.50
19214;DHT22;9741;51.020;5.304;2023-04-25T12:13:29;15.70;38.50
19214;DHT22;9741;51.020;5.304;2023-04-25T12:16:26;15.20;39.10
19214;DHT22;9741;51.020;5.304;2023-04-25T12:18:56;14.50;39.80
19214;DHT22;9741;51.020;5.304;2023-04-25T12:21:28;14.00;40.40
19214;DHT22;9741;51.020;5.304;2023-04-25T12:24:08;13.60;41.10
19214;DHT22;9741;51.020;5.304;2023-04-25T12:26:50;13.30;41.80
19214;DHT22;9741;51.020;5.304;2023-04-25T12:29:24;13.10;42.60
19214;DHT22;9741;51.020;5.304;2023-04-25T12:31:56;13.00;43.00
19214;DHT22;9741;51.020;5.304;2023-04-25T12:34:28;13.00;43.40
19214;DHT22;9741;51.020;5.304;2023-04-25T12:36:58;13.20;43.70
19214;DHT22;9741;51.020;5.304;2023-04-25T12:39:27;13.40;43.90
19214;DHT22;9741;51.020;5.304;2023-04-25T12:41:57;13.70;44.00
19214;DHT22;9741;51.020;5.304;2023-04-25T12:44:28;14.00;43.80
19214;DHT22;9741;51.020;5.304;2023-04-25T12:46:56;14.30;43.70
19214;DHT22;9741;51.020;5.304;2023-04-25T12:49:26;14.60;43.50
19214;DHT22;9741;51.020;5.304;2023-04-25T12:51:56;14.70;43.20
19214;DHT22;9741;51.020;5.304;2023-04-25T12:54:24;14.70;43.00
19214;DHT22;9741;51.020;5.304;2023-04-25T12:56:53;14.80;43.10
19214;DHT22;9741;51.020;5.304;2023-04-25T12:59:22;14.90;43.10
19214;DHT22;9741;51.020;5.304;2023-04-25T13:01:52;15.00;43.10
19214;DHT22;9741;51.020;5.304;2023-04-25T13:04:22;15.10;43.10
19214;DHT22;9741;51.020;5.304;2023-04-25T13:06:50;15.10;43.00
19214;DHT22;9741;51.020;5.304;2023-04-25T13:09:21;15.10;42.80
19214;DHT22;9741;51.020;5.304;2023-04-25T13:11:49;15.00;42.30
19214;DHT22;9741;51.020;5.304;2023-04-25T13:14:16;14.90;42.00
19214;DHT22;9741;51.020;5.304;2023-04-25T13:16:48;14.80;41.60
19214;DHT22;9741;51.020;5.304;2023-04-25T13:19:17;14.70;41.20
19214;DHT22;9741;51.020;5.304;2023-04-25T13:21:45;14.60;41.20
19214;DHT22;9741;51.020;5.304;2023-04-25T13:24:12;14.60;41.30
19214;DHT22;9741;51.020;5.304;2023-04-25T13:26:42;14.60;41.20
19214;DHT22;9741;51.020;5.304;2023-04-25T13:29:10;14.70;41.00
19214;DHT22;9741;51.020;5.304;2023-04-25T13:31:40;14.80;41.10
19214;DHT22;9741;51.020;5.304;2023-04-25T13:34:08;14.90;41.00
19214;DHT22;9741;51.020;5.304;2023-04-25T13:36:42;15.10;41.00
19214;DHT22;9741;51.020;5.304;2023-04-25T13:39:11;15.30;40.70
19214;DHT22;9741;51.020;5.304;2023-04-25T13:41:39;15.30;40.40
19214;DHT22;9741;51.020;5.304;2023-04-25T13:44:07;15.20;40.10
19214;DHT22;9741;51.020;5.304;2023-04-25T13:46:35;15.00;39.80
19214;DHT22;9741;51.020;5.304;2023-04-25T13:49:03;14.90;39.80
19214;DHT22;9741;51.020;5.304;2023-04-25T13:51:31;14.70;39.70
19214;DHT22;9741;51.020;5.304;2023-04-25T13:54:00;14.60;39.80
19214;DHT22;9741;51.020;5.304;2023-04-25T13:56:28;14.60;39.90
19214;DHT22;9741;51.020;5.304;2023-04-25T13:58:57;14.50;39.90
19214;DHT22;9741;51.020;5.304;2023-04-25T14:01:25;14.50;39.70
19214;DHT22;9741;51.020;5.304;2023-04-25T14:03:54;14.60;39.80
19214;DHT22;9741;51.020;5.304;2023-04-25T14:06:22;14.60;39.80
19214;DHT22;9741;51.020;5.304;2023-04-25T14:08:52;14.70;39.70
19214;DHT22;9741;51.020;5.304;2023-04-25T14:11:21;14.80;39.40
19214;DHT22;9741;51.020;5.304;2023-04-25T14:13:51;14.70;38.90
19214;DHT22;9741;51.020;5.304;2023-04-25T14:16:19;14.70;39.00
19214;DHT22;9741;51.020;5.304;2023-04-25T14:18:50;14.70;39.10
19214;DHT22;9741;51.020;5.304;2023-04-25T14:21:18;14.60;39.20
19214;DHT22;9741;51.020;5.304;2023-04-25T14:23:46;14.60;39.00
19214;DHT22;9741;51.020;5.304;2023-04-25T14:26:14;14.60;39.00
19214;DHT22;9741;51.020;5.304;2023-04-25T14:28:43;14.60;39.20
19214;DHT22;9741;51.020;5.304;2023-04-25T14:31:11;14.90;39.40
19214;DHT22;9741;51.020;5.304;2023-04-25T14:33:40;15.10;39.40
19214;DHT22;9741;51.020;5.304;2023-04-25T14:36:09;15.10;39.00
19214;DHT22;9741;51.020;5.304;2023-04-25T14:38:37;15.10;39.00
19214;DHT22;9741;51.020;5.304;2023-04-25T14:41:04;15.10;39.10
19214;DHT22;9741;51.020;5.304;2023-04-25T14:43:32;14.90;38.80
19214;DHT22;9741;51.020;5.304;2023-04-25T14:46:01;14.90;38.80
19214;DHT22;9741;51.020;5.304;2023-04-25T14:48:31;14.90;39.00
19214;DHT22;9741;51.020;5.304;2023-04-25T14:50:59;15.00;39.10
19214;DHT22;9741;51.020;5.304;2023-04-25T14:53:27;15.10;39.00
19214;DHT22;9741;51.020;5.304;2023-04-25T14:55:58;15.10;38.90
19214;DHT22;9741;51.020;5.304;2023-04-25T14:58:29;15.10;38.60
19214;DHT22;9741;51.020;5.304;2023-04-25T15:01:03;14.90;38.30
19214;DHT22;9741;51.020;5.304;2023-04-25T15:03:34;14.70;38.40
19214;DHT22;9741;51.020;5.304;2023-04-25T15:06:02;14.60;38.70
19214;DHT22;9741;51.020;5.304;2023-04-25T15:08:30;14.40;38.90
19214;DHT22;9741;51.020;5.304;2023-04-25T15:10:58;14.20;38.90
19214;DHT22;9741;51.020;5.304;2023-04-25T15:13:26;14.10;39.00
19214;DHT22;9741;51.020;5.304;2023-04-25T15:15:54;13.90;39.10
19214;DHT22;9741;51.020;5.304;2023-04-25T15:18:23;13.90;39.30
19214;DHT22;9741;51.020;5.304;2023-04-25T15:20:52;13.80;39.20
19214;DHT22;9741;51.020;5.304;2023-04-25T15:23:23;13.80;39.30
19214;DHT22;9741;51.020;5.304;2023-04-25T15:25:51;13.80;39.30
19214;DHT22;9741;51.020;5.304;2023-04-25T15:28:19;13.80;39.20
19214;DHT22;9741;51.020;5.304;2023-04-25T15:30:48;13.90;39.40
19214;DHT22;9741;51.020;5.304;2023-04-25T15:33:18;14.00;39.30
19214;DHT22;9741;51.020;5.304;2023-04-25T15:35:47;14.00;39.30
19214;DHT22;9741;51.020;5.304;2023-04-25T15:38:15;14.00;39.40
19214;DHT22;9741;51.020;5.304;2023-04-25T15:40:42;14.00;39.40
19214;DHT22;9741;51.020;5.304;2023-04-25T15:43:10;14.00;39.40
19214;DHT22;9741;51.020;5.304;2023-04-25T15:45:41;14.00;39.30
19214;DHT22;9741;51.020;5.304;2023-04-25T15:48:11;13.90;39.10
19214;DHT22;9741;51.020;5.304;2023-04-25T15:50:42;13.90;39.20
19214;DHT22;9741;51.020;5.304;2023-04-25T15:53:11;13.90;39.20
19214;DHT22;9741;51.020;5.304;2023-04-25T15:55:39;13.90;39.30
19214;DHT22;9741;51.020;5.304;2023-04-25T15:58:06;14.10;39.50
19214;DHT22;9741;51.020;5.304;2023-04-25T16:00:35;14.20;39.50
19214;DHT22;9741;51.020;5.304;2023-04-25T16:03:03;14.30;39.50
19214;DHT22;9741;51.020;5.304;2023-04-25T16:05:32;14.40;39.40
19214;DHT22;9741;51.020;5.304;2023-04-25T16:08:02;14.30;39.00